sensor_id;sensor_type;location;lat;lon;timestamp;P1;durP1;ratioP1;P2;durP2;ratioP2
870;SDS011;422;51.280;7.236;2023-11-19T00:00:06;4.20;;;3.33;;
870;SDS011;422;51.280;7.236;2023-11-19T00:02:38;3.77;;;3.33;;
870;SDS011;422;51.280;7.236;2023-11-19T00:05:06;4.60;;;3.30;;
870;SDS011;422;51.280;7.236;2023-11-19T00:07:36;6.00;;;3.90;;
870;SDS011;422;51.280;7.236;2023-11-19T00:10:06;4.87;;;3.60;;
870;SDS011;422;51.280;7.236;2023-11-19T00:12:35;4.57;;;3.60;;
870;SDS011;422;51.280;7.236;2023-11-19T00:15:03;4.03;;;3.63;;
870;SDS011;422;51.280;7.236;2023-11-19T00:17:34;5.13;;;4.10;;
870;SDS011;422;51.280;7.236;2023-11-19T00:20:02;4.43;;;3.87;;
870;SDS011;422;51.280;7.236;2023-11-19T00:22:31;4.40;;;4.00;;
870;SDS011;422;51.280;7.236;2023-11-19T00:24:58;9.53;;;4.70;;
870;SDS011;422;51.280;7.236;2023-11-19T00:27:26;6.97;;;3.90;;
870;SDS011;422;51.280;7.236;2023-11-19T00:29:53;6.30;;;4.97;;
870;SDS011;422;51.280;7.236;2023-11-19T00:32:22;5.90;;;5.40;;
870;SDS011;422;51.280;7.236;2023-11-19T00:34:49;7.30;;;6.60;;
870;SDS011;422;51.280;7.236;2023-11-19T00:37:18;5.90;;;5.30;;
870;SDS011;422;51.280;7.236;2023-11-19T00:39:45;5.73;;;5.23;;
870;SDS011;422;51.280;7.236;2023-11-19T00:42:12;7.30;;;6.20;;
870;SDS011;422;51.280;7.236;2023-11-19T00:44:39;6.77;;;6.17;;
870;SDS011;422;51.280;7.236;2023-11-19T00:47:07;7.67;;;6.97;;
870;SDS011;422;51.280;7.236;2023-11-19T00:49:34;8.13;;;5.47;;
870;SDS011;422;51.280;7.236;2023-11-19T00:52:01;7.30;;;6.57;;
870;SDS011;422;51.280;7.236;2023-11-19T00:54:30;7.23;;;6.53;;
870;SDS011;422;51.280;7.236;2023-11-19T00:56:58;8.60;;;7.90;;
870;SDS011;422;51.280;7.236;2023-11-19T00:59:26;9.10;;;8.20;;
870;SDS011;422;51.280;7.236;2023-11-19T01:01:54;7.97;;;7.27;;
870;SDS011;422;51.280;7.236;2023-11-19T01:04:22;9.57;;;7.93;;
870;SDS011;422;51.280;7.236;2023-11-19T01:06:50;8.67;;;7.97;;
870;SDS011;422;51.280;7.236;2023-11-19T01:09:17;11.47;;;8.87;;
870;SDS011;422;51.280;7.236;2023-11-19T01:11:46;9.10;;;8.20;;
870;SDS011;422;51.280;7.236;2023-11-19T01:14:13;8.03;;;7.33;;
870;SDS011;422;51.280;7.236;2023-11-19T01:16:42;8.33;;;7.63;;
870;SDS011;422;51.280;7.236;2023-11-19T01:19:10;9.90;;;7.90;;
870;SDS011;422;51.280;7.236;2023-11-19T01:21:37;7.30;;;6.17;;
870;SDS011;422;51.280;7.236;2023-11-19T01:24:04;7.90;;;7.10;;
870;SDS011;422;51.280;7.236;2023-11-19T01:26:34;7.30;;;6.40;;
870;SDS011;422;51.280;7.236;2023-11-19T01:29:03;5.80;;;5.13;;
870;SDS011;422;51.280;7.236;2023-11-19T01:31:31;5.90;;;5.30;;
870;SDS011;422;51.280;7.236;2023-11-19T01:33:59;8.63;;;4.90;;
870;SDS011;422;51.280;7.236;2023-11-19T01:36:26;4.53;;;4.13;;
870;SDS011;422;51.280;7.236;2023-11-19T01:38:55;5.07;;;3.57;;
870;SDS011;422;51.280;7.236;2023-11-19T01:41:22;5.10;;;4.60;;
870;SDS011;422;51.280;7.236;2023-11-19T01:43:50;4.17;;;3.77;;
870;SDS011;422;51.280;7.236;2023-11-19T01:46:19;5.20;;;4.73;;
870;SDS011;422;51.280;7.236;2023-11-19T01:48:46;4.50;;;4.10;;
870;SDS011;422;51.280;7.236;2023-11-19T01:51:14;7.93;;;4.90;;
870;SDS011;422;51.280;7.236;2023-11-19T01:53:43;7.63;;;4.93;;
870;SDS011;422;51.280;7.236;2023-11-19T01:56:11;6.57;;;5.37;;
870;SDS011;422;51.280;7.236;2023-11-19T01:58:41;6.30;;;4.70;;
870;SDS011;422;51.280;7.236;2023-11-19T02:01:10;5.80;;;4.53;;
870;SDS011;422;51.280;7.236;2023-11-19T02:03:39;5.37;;;4.87;;
870;SDS011;422;51.280;7.236;2023-11-19T02:06:06;5.03;;;4.37;;
870;SDS011;422;51.280;7.236;2023-11-19T02:08:35;6.87;;;4.40;;
870;SDS011;422;51.280;7.236;2023-11-19T02:11:04;5.90;;;4.00;;
870;SDS011;422;51.280;7.236;2023-11-19T02:13:32;6.20;;;4.10;;
870;SDS011;422;51.280;7.236;2023-11-19T02:16:01;7.10;;;4.30;;
870;SDS011;422;51.280;7.236;2023-11-19T02:18:29;4.80;;;3.83;;
870;SDS011;422;51.280;7.236;2023-11-19T02:20:58;9.47;;;4.20;;
870;SDS011;422;51.280;7.236;2023-11-19T02:23:26;4.87;;;3.83;;
870;SDS011;422;51.280;7.236;2023-11-19T02:26:00;8.90;;;4.03;;
870;SDS011;422;51.280;7.236;2023-11-19T02:28:35;8.67;;;4.10;;
870;SDS011;422;51.280;7.236;2023-11-19T02:31:03;5.50;;;4.30;;
870;SDS011;422;51.280;7.236;2023-11-19T02:33:34;6.30;;;3.67;;
870;SDS011;422;51.280;7.236;2023-11-19T02:36:02;7.60;;;4.00;;
870;SDS011;422;51.280;7.236;2023-11-19T02:38:30;6.90;;;3.57;;
870;SDS011;422;51.280;7.236;2023-11-19T02:40:57;5.73;;;3.83;;
870;SDS011;422;51.280;7.236;2023-11-19T02:43:27;6.57;;;4.03;;
870;SDS011;422;51.280;7.236;2023-11-19T02:45:57;7.60;;;3.90;;
870;SDS011;422;51.280;7.236;2023-11-19T02:48:25;7.00;;;4.10;;
870;SDS011;422;51.280;7.236;2023-11-19T02:50:53;8.00;;;4.63;;
870;SDS011;422;51.280;7.236;2023-11-19T02:53:20;8.27;;;4.40;;
870;SDS011;422;51.280;7.236;2023-11-19T02:55:47;7.10;;;4.57;;
870;SDS011;422;51.280;7.236;2023-11-19T02:58:15;11.33;;;5.23;;
870;SDS011;422;51.280;7.236;2023-11-19T03:00:49;8.30;;;5.10;;
870;SDS011;422;51.280;7.236;2023-11-19T03:03:23;9.40;;;4.90;;
870;SDS011;422;51.280;7.236;2023-11-19T03:05:55;8.77;;;4.97;;
870;SDS011;422;51.280;7.236;2023-11-19T03:08:23;11.87;;;4.77;;
870;SDS011;422;51.280;7.236;2023-11-19T03:10:50;9.53;;;5.07;;
870;SDS011;422;51.280;7.236;2023-11-19T03:13:17;12.20;;;4.60;;
870;SDS011;422;51.280;7.236;2023-11-19T03:15:44;12.20;;;4.33;;
870;SDS011;422;51.280;7.236;2023-11-19T03:18:12;14.10;;;5.17;;
870;SDS011;422;51.280;7.236;2023-11-19T03:20:41;11.60;;;4.73;;
870;SDS011;422;51.280;7.236;2023-11-19T03:23:08;11.60;;;5.10;;
870;SDS011;422;51.280;7.236;2023-11-19T03:25:35;14.57;;;5.00;;
870;SDS011;422;51.280;7.236;2023-11-19T03:28:02;8.43;;;5.30;;
870;SDS011;422;51.280;7.236;2023-11-19T03:30:31;14.60;;;5.50;;
870;SDS011;422;51.280;7.236;2023-11-19T03:32:59;16.27;;;5.20;;
870;SDS011;422;51.280;7.236;2023-11-19T03:35:26;11.93;;;4.73;;
870;SDS011;422;51.280;7.236;2023-11-19T03:37:55;19.37;;;5.30;;
870;SDS011;422;51.280;7.236;2023-11-19T03:40:22;16.70;;;6.57;;
870;SDS011;422;51.280;7.236;2023-11-19T03:42:50;14.47;;;4.70;;
870;SDS011;422;51.280;7.236;2023-11-19T03:45:17;21.80;;;5.13;;
870;SDS011;422;51.280;7.236;2023-11-19T03:47:44;13.17;;;4.77;;
870;SDS011;422;51.280;7.236;2023-11-19T03:50:12;11.07;;;5.10;;
870;SDS011;422;51.280;7.236;2023-11-19T03:52:41;9.47;;;4.97;;
870;SDS011;422;51.280;7.236;2023-11-19T03:55:09;11.97;;;4.90;;
870;SDS011;422;51.280;7.236;2023-11-19T03:57:37;10.93;;;5.23;;
870;SDS011;422;51.280;7.236;2023-11-19T04:00:05;10.57;;;4.67;;
870;SDS011;422;51.280;7.236;2023-11-19T04:02:35;11.10;;;4.63;;
870;SDS011;422;51.280;7.236;2023-11-19T04:05:02;14.27;;;4.90;;
870;SDS011;422;51.280;7.236;2023-11-19T04:07:30;15.43;;;5.17;;
870;SDS011;422;51.280;7.236;2023-11-19T04:09:57;19.00;;;7.00;;
870;SDS011;422;51.280;7.236;2023-11-19T04:12:26;16.33;;;5.53;;
870;SDS011;422;51.280;7.236;2023-11-19T04:14:53;24.47;;;5.33;;
870;SDS011;422;51.280;7.236;2023-11-19T04:17:21;15.47;;;4.43;;
870;SDS011;422;51.280;7.236;2023-11-19T04:19:49;11.93;;;5.10;;
870;SDS011;422;51.280;7.236;2023-11-19T04:22:16;12.30;;;5.20;;
870;SDS011;422;51.280;7.236;2023-11-19T04:24:43;18.00;;;4.90;;
870;SDS011;422;51.280;7.236;2023-11-19T04:27:10;13.70;;;5.30;;
870;SDS011;422;51.280;7.236;2023-11-19T04:29:39;12.40;;;5.17;;
870;SDS011;422;51.280;7.236;2023-11-19T04:32:06;16.70;;;6.07;;
870;SDS011;422;51.280;7.236;2023-11-19T04:34:34;13.53;;;4.73;;
870;SDS011;422;51.280;7.236;2023-11-19T04:37:02;22.80;;;6.63;;
870;SDS011;422;51.280;7.236;2023-11-19T04:39:30;13.93;;;4.50;;
870;SDS011;422;51.280;7.236;2023-11-19T04:41:57;18.57;;;5.27;;
870;SDS011;422;51.280;7.236;2023-11-19T04:44:24;14.67;;;4.80;;
870;SDS011;422;51.280;7.236;2023-11-19T04:46:53;15.00;;;4.97;;
870;SDS011;422;51.280;7.236;2023-11-19T04:49:20;17.40;;;5.60;;
870;SDS011;422;51.280;7.236;2023-11-19T04:51:47;17.23;;;5.70;;
870;SDS011;422;51.280;7.236;2023-11-19T04:54:15;20.43;;;5.30;;
870;SDS011;422;51.280;7.236;2023-11-19T04:56:45;25.27;;;7.50;;
870;SDS011;422;51.280;7.236;2023-11-19T04:59:12;19.50;;;4.70;;
870;SDS011;422;51.280;7.236;2023-11-19T05:01:39;16.73;;;6.27;;
870;SDS011;422;51.280;7.236;2023-11-19T05:04:08;16.00;;;5.60;;
870;SDS011;422;51.280;7.236;2023-11-19T05:06:36;17.17;;;4.90;;
870;SDS011;422;51.280;7.236;2023-11-19T05:09:03;16.90;;;5.17;;
870;SDS011;422;51.280;7.236;2023-11-19T05:11:33;16.93;;;5.40;;
870;SDS011;422;51.280;7.236;2023-11-19T05:14:02;20.87;;;5.17;;
870;SDS011;422;51.280;7.236;2023-11-19T05:16:30;19.23;;;6.00;;
870;SDS011;422;51.280;7.236;2023-11-19T05:18:58;17.30;;;5.50;;
870;SDS011;422;51.280;7.236;2023-11-19T05:21:26;20.27;;;5.80;;
870;SDS011;422;51.280;7.236;2023-11-19T05:23:54;18.50;;;5.40;;
870;SDS011;422;51.280;7.236;2023-11-19T05:26:22;21.07;;;5.47;;
870;SDS011;422;51.280;7.236;2023-11-19T05:28:50;19.60;;;5.13;;
870;SDS011;422;51.280;7.236;2023-11-19T05:31:17;18.03;;;5.00;;
870;SDS011;422;51.280;7.236;2023-11-19T05:33:44;15.93;;;5.27;;
870;SDS011;422;51.280;7.236;2023-11-19T05:36:12;17.57;;;4.80;;
870;SDS011;422;51.280;7.236;2023-11-19T05:38:41;14.33;;;5.03;;
870;SDS011;422;51.280;7.236;2023-11-19T05:41:09;15.33;;;6.43;;
870;SDS011;422;51.280;7.236;2023-11-19T05:43:36;16.37;;;6.23;;
870;SDS011;422;51.280;7.236;2023-11-19T05:46:05;19.23;;;6.30;;
870;SDS011;422;51.280;7.236;2023-11-19T05:48:34;23.47;;;5.60;;
870;SDS011;422;51.280;7.236;2023-11-19T05:51:01;18.93;;;5.90;;
870;SDS011;422;51.280;7.236;2023-11-19T05:53:28;17.90;;;6.97;;
870;SDS011;422;51.280;7.236;2023-11-19T05:55:57;17.10;;;6.60;;
870;SDS011;422;51.280;7.236;2023-11-19T05:58:29;16.63;;;6.03;;
870;SDS011;422;51.280;7.236;2023-11-19T06:00:57;18.17;;;6.00;;
870;SDS011;422;51.280;7.236;2023-11-19T06:03:26;21.10;;;5.20;;
870;SDS011;422;51.280;7.236;2023-11-19T06:05:53;15.73;;;5.10;;
870;SDS011;422;51.280;7.236;2023-11-19T06:08:20;22.67;;;6.20;;
870;SDS011;422;51.280;7.236;2023-11-19T06:10:48;18.73;;;5.17;;
870;SDS011;422;51.280;7.236;2023-11-19T06:13:18;21.77;;;6.17;;
870;SDS011;422;51.280;7.236;2023-11-19T06:15:45;18.07;;;6.27;;
870;SDS011;422;51.280;7.236;2023-11-19T06:18:12;17.80;;;6.50;;
870;SDS011;422;51.280;7.236;2023-11-19T06:20:40;23.10;;;6.30;;
870;SDS011;422;51.280;7.236;2023-11-19T06:23:07;17.30;;;4.67;;
870;SDS011;422;51.280;7.236;2023-11-19T06:25:34;16.30;;;5.27;;
870;SDS011;422;51.280;7.236;2023-11-19T06:28:01;20.47;;;6.17;;
870;SDS011;422;51.280;7.236;2023-11-19T06:30:31;19.77;;;5.63;;
870;SDS011;422;51.280;7.236;2023-11-19T06:32:58;16.10;;;5.77;;
870;SDS011;422;51.280;7.236;2023-11-19T06:35:25;21.77;;;5.43;;
870;SDS011;422;51.280;7.236;2023-11-19T06:37:54;14.10;;;5.53;;
870;SDS011;422;51.280;7.236;2023-11-19T06:40:21;19.70;;;5.40;;
870;SDS011;422;51.280;7.236;2023-11-19T06:42:49;24.83;;;6.60;;
870;SDS011;422;51.280;7.236;2023-11-19T06:45:17;19.80;;;5.73;;
870;SDS011;422;51.280;7.236;2023-11-19T06:47:47;19.37;;;5.07;;
870;SDS011;422;51.280;7.236;2023-11-19T06:50:14;18.70;;;5.00;;
870;SDS011;422;51.280;7.236;2023-11-19T06:52:41;26.37;;;5.93;;
870;SDS011;422;51.280;7.236;2023-11-19T06:55:09;15.13;;;5.53;;
870;SDS011;422;51.280;7.236;2023-11-19T06:57:36;18.70;;;5.67;;
870;SDS011;422;51.280;7.236;2023-11-19T07:00:04;15.30;;;4.97;;
870;SDS011;422;51.280;7.236;2023-11-19T07:02:33;16.63;;;6.00;;
870;SDS011;422;51.280;7.236;2023-11-19T07:05:01;20.23;;;5.27;;
870;SDS011;422;51.280;7.236;2023-11-19T07:07:30;21.23;;;6.03;;
870;SDS011;422;51.280;7.236;2023-11-19T07:09:57;26.73;;;6.10;;
870;SDS011;422;51.280;7.236;2023-11-19T07:12:25;20.50;;;7.00;;
870;SDS011;422;51.280;7.236;2023-11-19T07:14:52;19.77;;;5.80;;
870;SDS011;422;51.280;7.236;2023-11-19T07:17:20;24.17;;;5.67;;
870;SDS011;422;51.280;7.236;2023-11-19T07:19:49;23.30;;;6.07;;
870;SDS011;422;51.280;7.236;2023-11-19T07:22:18;19.77;;;5.27;;
870;SDS011;422;51.280;7.236;2023-11-19T07:24:45;20.67;;;5.27;;
870;SDS011;422;51.280;7.236;2023-11-19T07:27:12;19.97;;;6.30;;
870;SDS011;422;51.280;7.236;2023-11-19T07:29:40;18.17;;;4.97;;
870;SDS011;422;51.280;7.236;2023-11-19T07:32:10;20.80;;;5.87;;
870;SDS011;422;51.280;7.236;2023-11-19T07:34:38;28.23;;;6.57;;
870;SDS011;422;51.280;7.236;2023-11-19T07:37:06;26.03;;;6.77;;
870;SDS011;422;51.280;7.236;2023-11-19T07:39:34;24.90;;;5.20;;
870;SDS011;422;51.280;7.236;2023-11-19T07:42:06;16.37;;;5.93;;
870;SDS011;422;51.280;7.236;2023-11-19T07:44:34;22.10;;;7.40;;
870;SDS011;422;51.280;7.236;2023-11-19T07:47:01;20.73;;;6.20;;
870;SDS011;422;51.280;7.236;2023-11-19T07:49:29;21.00;;;5.33;;
870;SDS011;422;51.280;7.236;2023-11-19T07:51:57;18.93;;;5.90;;
870;SDS011;422;51.280;7.236;2023-11-19T07:54:24;19.73;;;5.47;;
870;SDS011;422;51.280;7.236;2023-11-19T07:56:53;25.40;;;6.43;;
870;SDS011;422;51.280;7.236;2023-11-19T07:59:20;25.20;;;7.03;;
870;SDS011;422;51.280;7.236;2023-11-19T08:01:47;25.73;;;6.23;;
870;SDS011;422;51.280;7.236;2023-11-19T08:04:14;21.33;;;6.27;;
870;SDS011;422;51.280;7.236;2023-11-19T08:06:41;23.20;;;7.50;;
870;SDS011;422;51.280;7.236;2023-11-19T08:09:09;22.33;;;7.80;;
870;SDS011;422;51.280;7.236;2023-11-19T08:11:39;25.67;;;5.77;;
870;SDS011;422;51.280;7.236;2023-11-19T08:14:08;24.37;;;6.80;;
870;SDS011;422;51.280;7.236;2023-11-19T08:16:35;22.53;;;5.87;;
870;SDS011;422;51.280;7.236;2023-11-19T08:19:03;26.07;;;6.90;;
870;SDS011;422;51.280;7.236;2023-11-19T08:21:30;23.30;;;7.00;;
870;SDS011;422;51.280;7.236;2023-11-19T08:23:57;21.93;;;5.37;;
870;SDS011;422;51.280;7.236;2023-11-19T08:26:24;24.37;;;6.40;;
870;SDS011;422;51.280;7.236;2023-11-19T08:28:51;25.63;;;6.40;;
870;SDS011;422;51.280;7.236;2023-11-19T08:31:20;19.73;;;6.37;;
870;SDS011;422;51.280;7.236;2023-11-19T08:33:47;19.43;;;6.20;;
870;SDS011;422;51.280;7.236;2023-11-19T08:36:15;22.93;;;6.63;;
870;SDS011;422;51.280;7.236;2023-11-19T08:38:43;25.57;;;6.40;;
870;SDS011;422;51.280;7.236;2023-11-19T08:41:10;22.47;;;6.53;;
870;SDS011;422;51.280;7.236;2023-11-19T08:43:37;16.90;;;5.13;;
870;SDS011;422;51.280;7.236;2023-11-19T08:46:09;23.93;;;5.83;;
870;SDS011;422;51.280;7.236;2023-11-19T08:48:37;22.27;;;6.27;;
870;SDS011;422;51.280;7.236;2023-11-19T08:51:05;16.03;;;5.30;;
870;SDS011;422;51.280;7.236;2023-11-19T08:53:32;20.90;;;6.63;;
870;SDS011;422;51.280;7.236;2023-11-19T08:56:00;19.30;;;6.73;;
870;SDS011;422;51.280;7.236;2023-11-19T08:58:28;17.80;;;5.97;;
870;SDS011;422;51.280;7.236;2023-11-19T09:00:55;28.20;;;7.37;;
870;SDS011;422;51.280;7.236;2023-11-19T09:03:23;24.57;;;7.10;;
870;SDS011;422;51.280;7.236;2023-11-19T09:05:52;24.27;;;5.90;;
870;SDS011;422;51.280;7.236;2023-11-19T09:08:20;17.60;;;5.90;;
870;SDS011;422;51.280;7.236;2023-11-19T09:10:47;19.63;;;6.50;;
870;SDS011;422;51.280;7.236;2023-11-19T09:13:14;21.10;;;5.30;;
870;SDS011;422;51.280;7.236;2023-11-19T09:15:41;21.73;;;6.00;;
870;SDS011;422;51.280;7.236;2023-11-19T09:18:09;31.33;;;8.20;;
870;SDS011;422;51.280;7.236;2023-11-19T09:20:36;22.93;;;6.37;;
870;SDS011;422;51.280;7.236;2023-11-19T09:23:05;21.27;;;6.60;;
870;SDS011;422;51.280;7.236;2023-11-19T09:25:34;26.37;;;6.80;;
870;SDS011;422;51.280;7.236;2023-11-19T09:28:01;20.00;;;6.20;;
870;SDS011;422;51.280;7.236;2023-11-19T09:30:28;18.97;;;6.70;;
870;SDS011;422;51.280;7.236;2023-11-19T09:32:58;16.70;;;6.00;;
870;SDS011;422;51.280;7.236;2023-11-19T09:35:26;17.27;;;5.93;;
870;SDS011;422;51.280;7.236;2023-11-19T09:37:53;20.00;;;5.50;;
870;SDS011;422;51.280;7.236;2023-11-19T09:40:22;18.27;;;6.47;;
870;SDS011;422;51.280;7.236;2023-11-19T09:42:49;18.63;;;5.93;;
870;SDS011;422;51.280;7.236;2023-11-19T09:45:17;21.40;;;7.10;;
870;SDS011;422;51.280;7.236;2023-11-19T09:47:47;23.27;;;6.43;;
870;SDS011;422;51.280;7.236;2023-11-19T09:50:18;26.00;;;6.50;;
870;SDS011;422;51.280;7.236;2023-11-19T09:52:46;25.47;;;6.90;;
870;SDS011;422;51.280;7.236;2023-11-19T09:55:14;15.70;;;6.60;;
870;SDS011;422;51.280;7.236;2023-11-19T09:57:42;26.63;;;7.50;;
870;SDS011;422;51.280;7.236;2023-11-19T10:00:11;21.87;;;6.63;;
870;SDS011;422;51.280;7.236;2023-11-19T10:02:40;18.53;;;5.37;;
870;SDS011;422;51.280;7.236;2023-11-19T10:05:11;25.10;;;6.70;;
870;SDS011;422;51.280;7.236;2023-11-19T10:07:40;19.53;;;5.70;;
870;SDS011;422;51.280;7.236;2023-11-19T10:10:08;19.30;;;6.60;;
870;SDS011;422;51.280;7.236;2023-11-19T10:12:39;21.70;;;6.10;;
870;SDS011;422;51.280;7.236;2023-11-19T10:15:08;18.87;;;6.03;;
870;SDS011;422;51.280;7.236;2023-11-19T10:17:46;20.30;;;5.90;;
870;SDS011;422;51.280;7.236;2023-11-19T10:20:14;25.80;;;6.83;;
870;SDS011;422;51.280;7.236;2023-11-19T10:22:41;25.37;;;6.70;;
870;SDS011;422;51.280;7.236;2023-11-19T10:25:18;27.07;;;6.60;;
870;SDS011;422;51.280;7.236;2023-11-19T10:27:48;26.10;;;8.13;;
870;SDS011;422;51.280;7.236;2023-11-19T10:30:18;19.93;;;6.43;;
870;SDS011;422;51.280;7.236;2023-11-19T10:32:58;22.07;;;7.17;;
870;SDS011;422;51.280;7.236;2023-11-19T10:35:32;20.70;;;7.43;;
870;SDS011;422;51.280;7.236;2023-11-19T10:38:00;18.90;;;5.97;;
870;SDS011;422;51.280;7.236;2023-11-19T10:40:39;17.37;;;6.40;;
870;SDS011;422;51.280;7.236;2023-11-19T10:43:09;21.07;;;6.10;;
870;SDS011;422;51.280;7.236;2023-11-19T10:45:38;27.40;;;6.33;;
870;SDS011;422;51.280;7.236;2023-11-19T10:48:06;20.27;;;6.30;;
870;SDS011;422;51.280;7.236;2023-11-19T10:50:33;27.23;;;5.63;;
870;SDS011;422;51.280;7.236;2023-11-19T10:53:01;17.67;;;5.63;;
870;SDS011;422;51.280;7.236;2023-11-19T10:55:29;22.70;;;7.83;;
870;SDS011;422;51.280;7.236;2023-11-19T10:57:59;19.23;;;5.23;;
870;SDS011;422;51.280;7.236;2023-11-19T11:00:28;22.03;;;6.27;;
870;SDS011;422;51.280;7.236;2023-11-19T11:03:01;19.97;;;5.80;;
870;SDS011;422;51.280;7.236;2023-11-19T11:05:32;25.13;;;6.17;;
870;SDS011;422;51.280;7.236;2023-11-19T11:08:00;23.03;;;6.40;;
870;SDS011;422;51.280;7.236;2023-11-19T11:10:29;17.77;;;5.13;;
870;SDS011;422;51.280;7.236;2023-11-19T11:13:01;21.37;;;6.60;;
870;SDS011;422;51.280;7.236;2023-11-19T11:15:30;15.50;;;5.10;;
870;SDS011;422;51.280;7.236;2023-11-19T11:17:59;14.77;;;5.90;;
870;SDS011;422;51.280;7.236;2023-11-19T11:20:29;19.60;;;5.43;;
870;SDS011;422;51.280;7.236;2023-11-19T11:23:06;23.23;;;5.97;;
870;SDS011;422;51.280;7.236;2023-11-19T11:26:00;17.73;;;5.53;;
870;SDS011;422;51.280;7.236;2023-11-19T11:28:43;15.27;;;5.60;;
870;SDS011;422;51.280;7.236;2023-11-19T11:31:18;16.80;;;6.17;;
870;SDS011;422;51.280;7.236;2023-11-19T11:34:03;21.73;;;6.40;;
870;SDS011;422;51.280;7.236;2023-11-19T11:36:44;16.80;;;5.50;;
870;SDS011;422;51.280;7.236;2023-11-19T11:39:20;17.87;;;5.30;;
870;SDS011;422;51.280;7.236;2023-11-19T11:45:08;19.67;;;5.27;;
870;SDS011;422;51.280;7.236;2023-11-19T11:50:46;20.57;;;5.47;;
870;SDS011;422;51.280;7.236;2023-11-19T11:53:18;15.87;;;5.17;;
870;SDS011;422;51.280;7.236;2023-11-19T11:55:53;21.93;;;5.83;;
870;SDS011;422;51.280;7.236;2023-11-19T11:58:34;17.00;;;6.93;;
870;SDS011;422;51.280;7.236;2023-11-19T12:01:04;18.90;;;5.60;;
870;SDS011;422;51.280;7.236;2023-11-19T12:03:32;15.37;;;5.43;;
870;SDS011;422;51.280;7.236;2023-11-19T12:06:01;19.13;;;6.23;;
870;SDS011;422;51.280;7.236;2023-11-19T12:08:29;16.03;;;5.20;;
870;SDS011;422;51.280;7.236;2023-11-19T12:10:57;14.37;;;6.50;;
870;SDS011;422;51.280;7.236;2023-11-19T12:16:13;23.17;;;7.20;;
870;SDS011;422;51.280;7.236;2023-11-19T12:18:41;11.60;;;4.57;;
870;SDS011;422;51.280;7.236;2023-11-19T12:21:09;13.97;;;5.27;;
870;SDS011;422;51.280;7.236;2023-11-19T12:23:44;18.27;;;5.63;;
870;SDS011;422;51.280;7.236;2023-11-19T12:29:03;18.33;;;6.20;;
870;SDS011;422;51.280;7.236;2023-11-19T12:31:31;18.60;;;5.00;;
870;SDS011;422;51.280;7.236;2023-11-19T12:34:05;19.13;;;6.90;;
870;SDS011;422;51.280;7.236;2023-11-19T12:36:38;19.07;;;6.40;;
870;SDS011;422;51.280;7.236;2023-11-19T12:39:06;11.90;;;4.20;;
870;SDS011;422;51.280;7.236;2023-11-19T12:41:48;20.17;;;6.07;;
870;SDS011;422;51.280;7.236;2023-11-19T12:44:16;13.60;;;4.87;;
870;SDS011;422;51.280;7.236;2023-11-19T12:46:43;20.33;;;5.80;;
870;SDS011;422;51.280;7.236;2023-11-19T12:49:11;17.27;;;5.00;;
870;SDS011;422;51.280;7.236;2023-11-19T12:51:40;11.40;;;4.30;;
870;SDS011;422;51.280;7.236;2023-11-19T12:54:07;13.47;;;4.90;;
870;SDS011;422;51.280;7.236;2023-11-19T12:56:34;18.43;;;5.00;;
870;SDS011;422;51.280;7.236;2023-11-19T12:59:12;19.27;;;4.50;;
870;SDS011;422;51.280;7.236;2023-11-19T13:01:39;12.03;;;5.13;;
870;SDS011;422;51.280;7.236;2023-11-19T13:04:17;17.00;;;5.07;;
870;SDS011;422;51.280;7.236;2023-11-19T13:06:46;16.10;;;5.70;;
870;SDS011;422;51.280;7.236;2023-11-19T13:09:23;14.13;;;5.00;;
870;SDS011;422;51.280;7.236;2023-11-19T13:11:51;15.20;;;4.40;;
870;SDS011;422;51.280;7.236;2023-11-19T13:14:20;14.50;;;5.00;;
870;SDS011;422;51.280;7.236;2023-11-19T13:16:47;16.00;;;5.10;;
870;SDS011;422;51.280;7.236;2023-11-19T13:19:15;14.87;;;3.80;;
870;SDS011;422;51.280;7.236;2023-11-19T13:21:44;13.97;;;5.47;;
870;SDS011;422;51.280;7.236;2023-11-19T13:24:13;16.73;;;5.17;;
870;SDS011;422;51.280;7.236;2023-11-19T13:26:40;14.33;;;4.50;;
870;SDS011;422;51.280;7.236;2023-11-19T13:29:08;13.87;;;5.40;;
870;SDS011;422;51.280;7.236;2023-11-19T13:31:36;13.87;;;5.10;;
870;SDS011;422;51.280;7.236;2023-11-19T13:34:03;12.50;;;4.17;;
870;SDS011;422;51.280;7.236;2023-11-19T13:36:32;12.17;;;5.50;;
870;SDS011;422;51.280;7.236;2023-11-19T13:39:01;15.87;;;5.03;;
870;SDS011;422;51.280;7.236;2023-11-19T13:41:28;16.10;;;4.90;;
870;SDS011;422;51.280;7.236;2023-11-19T13:43:55;10.97;;;4.40;;
870;SDS011;422;51.280;7.236;2023-11-19T13:46:23;13.10;;;4.90;;
870;SDS011;422;51.280;7.236;2023-11-19T13:48:51;17.87;;;5.13;;
870;SDS011;422;51.280;7.236;2023-11-19T13:51:18;17.03;;;5.27;;
870;SDS011;422;51.280;7.236;2023-11-19T13:53:46;13.43;;;5.57;;
870;SDS011;422;51.280;7.236;2023-11-19T13:56:15;12.93;;;4.50;;
870;SDS011;422;51.280;7.236;2023-11-19T13:58:43;14.73;;;5.07;;
870;SDS011;422;51.280;7.236;2023-11-19T14:01:10;15.97;;;5.40;;
870;SDS011;422;51.280;7.236;2023-11-19T14:03:38;13.10;;;4.37;;
870;SDS011;422;51.280;7.236;2023-11-19T14:06:05;9.23;;;4.17;;
870;SDS011;422;51.280;7.236;2023-11-19T14:08:33;13.10;;;5.00;;
870;SDS011;422;51.280;7.236;2023-11-19T14:11:01;14.60;;;5.00;;
870;SDS011;422;51.280;7.236;2023-11-19T14:13:29;14.60;;;5.07;;
870;SDS011;422;51.280;7.236;2023-11-19T14:15:57;10.33;;;4.43;;
870;SDS011;422;51.280;7.236;2023-11-19T14:18:24;18.63;;;4.73;;
870;SDS011;422;51.280;7.236;2023-11-19T14:20:51;11.77;;;4.47;;
870;SDS011;422;51.280;7.236;2023-11-19T14:23:19;14.60;;;5.67;;
870;SDS011;422;51.280;7.236;2023-11-19T14:25:46;13.63;;;4.77;;
870;SDS011;422;51.280;7.236;2023-11-19T14:28:14;13.20;;;5.00;;
870;SDS011;422;51.280;7.236;2023-11-19T14:30:43;16.57;;;5.57;;
870;SDS011;422;51.280;7.236;2023-11-19T14:33:11;19.43;;;5.30;;
870;SDS011;422;51.280;7.236;2023-11-19T14:35:38;14.43;;;5.10;;
870;SDS011;422;51.280;7.236;2023-11-19T14:38:06;17.30;;;5.60;;
870;SDS011;422;51.280;7.236;2023-11-19T14:40:35;19.53;;;5.73;;
870;SDS011;422;51.280;7.236;2023-11-19T14:43:02;16.50;;;5.43;;
870;SDS011;422;51.280;7.236;2023-11-19T14:45:29;18.83;;;6.33;;
870;SDS011;422;51.280;7.236;2023-11-19T14:47:58;16.30;;;5.60;;
870;SDS011;422;51.280;7.236;2023-11-19T14:50:26;13.80;;;5.80;;
870;SDS011;422;51.280;7.236;2023-11-19T14:52:53;15.00;;;5.53;;
870;SDS011;422;51.280;7.236;2023-11-19T14:55:20;15.27;;;5.43;;
870;SDS011;422;51.280;7.236;2023-11-19T14:57:47;17.33;;;6.00;;
870;SDS011;422;51.280;7.236;2023-11-19T15:00:16;18.13;;;5.73;;
870;SDS011;422;51.280;7.236;2023-11-19T15:02:44;20.33;;;6.30;;
870;SDS011;422;51.280;7.236;2023-11-19T15:05:12;20.17;;;5.90;;
870;SDS011;422;51.280;7.236;2023-11-19T15:07:40;19.70;;;6.03;;
870;SDS011;422;51.280;7.236;2023-11-19T15:10:07;21.83;;;5.90;;
870;SDS011;422;51.280;7.236;2023-11-19T15:12:35;19.27;;;5.93;;
870;SDS011;422;51.280;7.236;2023-11-19T15:15:06;15.07;;;5.90;;
870;SDS011;422;51.280;7.236;2023-11-19T15:17:38;16.13;;;5.70;;
870;SDS011;422;51.280;7.236;2023-11-19T15:20:06;14.40;;;5.70;;
870;SDS011;422;51.280;7.236;2023-11-19T15:22:36;14.13;;;6.10;;
870;SDS011;422;51.280;7.236;2023-11-19T15:25:03;16.33;;;5.83;;
870;SDS011;422;51.280;7.236;2023-11-19T15:27:35;21.87;;;6.63;;
870;SDS011;422;51.280;7.236;2023-11-19T15:30:03;17.23;;;6.10;;
870;SDS011;422;51.280;7.236;2023-11-19T15:32:31;17.33;;;6.30;;
870;SDS011;422;51.280;7.236;2023-11-19T15:34:58;17.93;;;5.63;;
870;SDS011;422;51.280;7.236;2023-11-19T15:37:25;19.47;;;7.10;;
870;SDS011;422;51.280;7.236;2023-11-19T15:39:55;18.70;;;7.47;;
870;SDS011;422;51.280;7.236;2023-11-19T15:42:23;15.47;;;5.87;;
870;SDS011;422;51.280;7.236;2023-11-19T15:44:51;15.87;;;6.27;;
870;SDS011;422;51.280;7.236;2023-11-19T15:47:18;21.40;;;6.10;;
870;SDS011;422;51.280;7.236;2023-11-19T15:49:46;19.77;;;5.47;;
870;SDS011;422;51.280;7.236;2023-11-19T15:52:13;15.10;;;5.80;;